sensor_id;sensor_type;location;lat;lon;timestamp;P1;durP1;ratioP1;P2;durP2;ratioP2
56599;SDS011;51832;48.152;11.530;2022-10-17T00:02:59;3.72;;;1.85;;
56599;SDS011;51832;48.152;11.530;2022-10-17T00:07:59;3.45;;;2.47;;
56599;SDS011;51832;48.152;11.530;2022-10-17T00:13:00;4.30;;;2.33;;
56599;SDS011;51832;48.152;11.530;2022-10-17T00:18:01;2.70;;;2.20;;
56599;SDS011;51832;48.152;11.530;2022-10-17T00:23:01;6.57;;;2.20;;
56599;SDS011;51832;48.152;11.530;2022-10-17T00:28:02;4.40;;;2.10;;
56599;SDS011;51832;48.152;11.530;2022-10-17T00:33:03;3.03;;;2.00;;
56599;SDS011;51832;48.152;11.530;2022-10-17T00:38:04;2.90;;;2.10;;
56599;SDS011;51832;48.152;11.530;2022-10-17T00:43:05;3.53;;;2.20;;
56599;SDS011;51832;48.152;11.530;2022-10-17T00:48:15;2.58;;;2.13;;
56599;SDS011;51832;48.152;11.530;2022-10-17T00:53:16;2.70;;;1.98;;
56599;SDS011;51832;48.152;11.530;2022-10-17T00:58:17;2.50;;;2.15;;
56599;SDS011;51832;48.152;11.530;2022-10-17T01:03:19;3.38;;;2.40;;
56599;SDS011;51832;48.152;11.530;2022-10-17T01:08:20;3.15;;;2.15;;
56599;SDS011;51832;48.152;11.530;2022-10-17T01:13:23;2.60;;;2.40;;
56599;SDS011;51832;48.152;11.530;2022-10-17T01:24:08;2.85;;;2.30;;
56599;SDS011;51832;48.152;11.530;2022-10-17T01:39:52;3.67;;;2.88;;
56599;SDS011;51832;48.152;11.530;2022-10-17T01:50:00;2.67;;;2.47;;
56599;SDS011;51832;48.152;11.530;2022-10-17T01:55:10;3.25;;;2.40;;
56599;SDS011;51832;48.152;11.530;2022-10-17T02:00:16;4.30;;;2.10;;
56599;SDS011;51832;48.152;11.530;2022-10-17T02:05:20;3.60;;;2.42;;
56599;SDS011;51832;48.152;11.530;2022-10-17T02:21:13;2.50;;;2.22;;
56599;SDS011;51832;48.152;11.530;2022-10-17T02:26:19;3.63;;;2.17;;
56599;SDS011;51832;48.152;11.530;2022-10-17T02:31:28;3.15;;;2.25;;
56599;SDS011;51832;48.152;11.530;2022-10-17T02:36:38;4.40;;;2.42;;
56599;SDS011;51832;48.152;11.530;2022-10-17T02:41:42;5.10;;;2.38;;
56599;SDS011;51832;48.152;11.530;2022-10-17T02:46:46;4.45;;;2.20;;
56599;SDS011;51832;48.152;11.530;2022-10-17T02:52:11;3.25;;;2.10;;
56599;SDS011;51832;48.152;11.530;2022-10-17T03:02:58;2.58;;;2.30;;
56599;SDS011;51832;48.152;11.530;2022-10-17T03:07:58;2.35;;;2.00;;
56599;SDS011;51832;48.152;11.530;2022-10-17T03:12:59;2.85;;;2.00;;
56599;SDS011;51832;48.152;11.530;2022-10-17T03:17:59;2.83;;;2.10;;
56599;SDS011;51832;48.152;11.530;2022-10-17T03:23:00;5.85;;;2.30;;
56599;SDS011;51832;48.152;11.530;2022-10-17T03:28:00;3.75;;;2.40;;
56599;SDS011;51832;48.152;11.530;2022-10-17T03:33:01;2.85;;;2.03;;
56599;SDS011;51832;48.152;11.530;2022-10-17T03:38:01;3.33;;;2.08;;
56599;SDS011;51832;48.152;11.530;2022-10-17T03:43:02;2.22;;;1.75;;
56599;SDS011;51832;48.152;11.530;2022-10-17T03:48:02;2.83;;;2.28;;
56599;SDS011;51832;48.152;11.530;2022-10-17T03:53:03;3.42;;;2.28;;
56599;SDS011;51832;48.152;11.530;2022-10-17T03:58:03;2.30;;;1.65;;
56599;SDS011;51832;48.152;11.530;2022-10-17T04:03:04;3.05;;;2.10;;
56599;SDS011;51832;48.152;11.530;2022-10-17T04:08:04;5.00;;;2.53;;
56599;SDS011;51832;48.152;11.530;2022-10-17T04:13:05;4.05;;;2.92;;
56599;SDS011;51832;48.152;11.530;2022-10-17T04:18:05;2.47;;;2.00;;
56599;SDS011;51832;48.152;11.530;2022-10-17T04:23:06;2.65;;;1.95;;
56599;SDS011;51832;48.152;11.530;2022-10-17T04:28:06;5.35;;;2.65;;
56599;SDS011;51832;48.152;11.530;2022-10-17T04:33:07;4.78;;;2.30;;
56599;SDS011;51832;48.152;11.530;2022-10-17T04:38:08;5.07;;;2.20;;
56599;SDS011;51832;48.152;11.530;2022-10-17T04:43:08;3.90;;;2.55;;
56599;SDS011;51832;48.152;11.530;2022-10-17T04:48:08;2.40;;;2.13;;
56599;SDS011;51832;48.152;11.530;2022-10-17T04:53:09;2.65;;;2.20;;
56599;SDS011;51832;48.152;11.530;2022-10-17T04:58:09;4.00;;;2.90;;
56599;SDS011;51832;48.152;11.530;2022-10-17T05:03:10;5.30;;;2.90;;
56599;SDS011;51832;48.152;11.530;2022-10-17T05:08:10;3.63;;;2.80;;
56599;SDS011;51832;48.152;11.530;2022-10-17T05:13:11;7.38;;;3.15;;
56599;SDS011;51832;48.152;11.530;2022-10-17T05:18:12;5.93;;;3.33;;
56599;SDS011;51832;48.152;11.530;2022-10-17T05:23:12;4.90;;;2.70;;
56599;SDS011;51832;48.152;11.530;2022-10-17T05:28:13;7.63;;;3.00;;
56599;SDS011;51832;48.152;11.530;2022-10-17T05:33:14;12.13;;;4.05;;
56599;SDS011;51832;48.152;11.530;2022-10-17T05:38:14;9.55;;;3.72;;
56599;SDS011;51832;48.152;11.530;2022-10-17T05:43:15;20.98;;;6.10;;
56599;SDS011;51832;48.152;11.530;2022-10-17T05:48:15;8.18;;;4.10;;
56599;SDS011;51832;48.152;11.530;2022-10-17T05:53:16;6.10;;;3.50;;
56599;SDS011;51832;48.152;11.530;2022-10-17T05:58:16;8.80;;;3.70;;
56599;SDS011;51832;48.152;11.530;2022-10-17T06:03:17;8.35;;;4.15;;
56599;SDS011;51832;48.152;11.530;2022-10-17T06:08:17;6.05;;;3.80;;
56599;SDS011;51832;48.152;11.530;2022-10-17T06:13:18;9.73;;;4.03;;
56599;SDS011;51832;48.152;11.530;2022-10-17T06:18:18;6.85;;;4.05;;
56599;SDS011;51832;48.152;11.530;2022-10-17T06:23:19;8.38;;;4.07;;
56599;SDS011;51832;48.152;11.530;2022-10-17T06:28:19;11.10;;;5.82;;
56599;SDS011;51832;48.152;11.530;2022-10-17T06:33:20;10.40;;;5.47;;
56599;SDS011;51832;48.152;11.530;2022-10-17T06:38:22;10.52;;;5.07;;
56599;SDS011;51832;48.152;11.530;2022-10-17T06:43:22;15.93;;;4.60;;
56599;SDS011;51832;48.152;11.530;2022-10-17T06:48:23;8.75;;;4.30;;
56599;SDS011;51832;48.152;11.530;2022-10-17T06:53:25;8.27;;;4.40;;
56599;SDS011;51832;48.152;11.530;2022-10-17T06:58:28;8.00;;;4.13;;
56599;SDS011;51832;48.152;11.530;2022-10-17T07:03:29;7.97;;;4.03;;
56599;SDS011;51832;48.152;11.530;2022-10-17T07:08:30;13.93;;;3.97;;
56599;SDS011;51832;48.152;11.530;2022-10-17T07:13:31;6.22;;;3.80;;
56599;SDS011;51832;48.152;11.530;2022-10-17T07:18:31;5.03;;;3.08;;
56599;SDS011;51832;48.152;11.530;2022-10-17T07:23:32;4.45;;;3.00;;
56599;SDS011;51832;48.152;11.530;2022-10-17T07:33:37;3.83;;;2.80;;
56599;SDS011;51832;48.152;11.530;2022-10-17T07:38:38;6.82;;;3.13;;
56599;SDS011;51832;48.152;11.530;2022-10-17T07:43:39;7.93;;;3.72;;
56599;SDS011;51832;48.152;11.530;2022-10-17T07:48:40;6.88;;;3.45;;
56599;SDS011;51832;48.152;11.530;2022-10-17T07:53:41;5.20;;;3.30;;
56599;SDS011;51832;48.152;11.530;2022-10-17T07:58:43;5.20;;;2.90;;
56599;SDS011;51832;48.152;11.530;2022-10-17T08:03:44;6.25;;;2.83;;
56599;SDS011;51832;48.152;11.530;2022-10-17T08:08:45;5.30;;;3.08;;
56599;SDS011;51832;48.152;11.530;2022-10-17T08:13:46;5.20;;;3.00;;
56599;SDS011;51832;48.152;11.530;2022-10-17T08:18:46;4.43;;;3.10;;
56599;SDS011;51832;48.152;11.530;2022-10-17T08:23:47;6.03;;;3.50;;
56599;SDS011;51832;48.152;11.530;2022-10-17T08:28:48;4.22;;;2.78;;
56599;SDS011;51832;48.152;11.530;2022-10-17T08:33:49;5.20;;;3.05;;
56599;SDS011;51832;48.152;11.530;2022-10-17T08:38:49;7.50;;;3.20;;
56599;SDS011;51832;48.152;11.530;2022-10-17T08:49:40;3.95;;;2.70;;
56599;SDS011;51832;48.152;11.530;2022-10-17T08:54:47;2.85;;;2.55;;
56599;SDS011;51832;48.152;11.530;2022-10-17T08:59:50;6.67;;;4.50;;
56599;SDS011;51832;48.152;11.530;2022-10-17T09:04:57;4.10;;;2.70;;
56599;SDS011;51832;48.152;11.530;2022-10-17T09:10:24;2.90;;;2.60;;
56599;SDS011;51832;48.152;11.530;2022-10-17T09:26:12;3.03;;;2.55;;
56599;SDS011;51832;48.152;11.530;2022-10-17T09:36:28;2.97;;;2.20;;
56599;SDS011;51832;48.152;11.530;2022-10-17T09:41:34;3.28;;;2.38;;
56599;SDS011;51832;48.152;11.530;2022-10-17T09:46:39;4.80;;;2.70;;
56599;SDS011;51832;48.152;11.530;2022-10-17T09:51:42;3.88;;;2.58;;
56599;SDS011;51832;48.152;11.530;2022-10-17T09:56:56;5.13;;;2.58;;
56599;SDS011;51832;48.152;11.530;2022-10-17T10:07:14;3.10;;;2.47;;
56599;SDS011;51832;48.152;11.530;2022-10-17T10:17:25;3.08;;;2.40;;
56599;SDS011;51832;48.152;11.530;2022-10-17T10:22:37;2.30;;;2.10;;
56599;SDS011;51832;48.152;11.530;2022-10-17T10:27:38;2.10;;;1.90;;
56599;SDS011;51832;48.152;11.530;2022-10-17T10:32:40;2.40;;;2.00;;
56599;SDS011;51832;48.152;11.530;2022-10-17T10:37:47;3.92;;;2.45;;
56599;SDS011;51832;48.152;11.530;2022-10-17T10:42:54;4.18;;;2.13;;
56599;SDS011;51832;48.152;11.530;2022-10-17T10:48:00;2.88;;;2.47;;
56599;SDS011;51832;48.152;11.530;2022-10-17T11:03:35;2.35;;;2.08;;
56599;SDS011;51832;48.152;11.530;2022-10-17T11:08:43;3.03;;;2.42;;
56599;SDS011;51832;48.152;11.530;2022-10-17T11:14:36;2.28;;;1.90;;
56599;SDS011;51832;48.152;11.530;2022-10-17T11:19:22;2.25;;;1.92;;
56599;SDS011;51832;48.152;11.530;2022-10-17T11:24:24;2.63;;;2.00;;
56599;SDS011;51832;48.152;11.530;2022-10-17T11:29:38;4.05;;;2.15;;
56599;SDS011;51832;48.152;11.530;2022-10-17T11:34:44;2.85;;;2.08;;
56599;SDS011;51832;48.152;11.530;2022-10-17T11:45:15;2.40;;;2.13;;
56599;SDS011;51832;48.152;11.530;2022-10-17T11:50:27;13.65;;;3.33;;
56599;SDS011;51832;48.152;11.530;2022-10-17T11:55:31;2.33;;;1.73;;
56599;SDS011;51832;48.152;11.530;2022-10-17T12:00:40;2.20;;;2.00;;
56599;SDS011;51832;48.152;11.530;2022-10-17T12:21:20;3.78;;;2.00;;
56599;SDS011;51832;48.152;11.530;2022-10-17T12:26:25;3.40;;;1.95;;
56599;SDS011;51832;48.152;11.530;2022-10-17T12:31:27;2.30;;;2.10;;
56599;SDS011;51832;48.152;11.530;2022-10-17T13:02:40;2.67;;;1.95;;
56599;SDS011;51832;48.152;11.530;2022-10-17T13:07:42;2.13;;;1.80;;
56599;SDS011;51832;48.152;11.530;2022-10-17T13:12:44;2.67;;;1.88;;
56599;SDS011;51832;48.152;11.530;2022-10-17T13:17:53;1.73;;;1.63;;
56599;SDS011;51832;48.152;11.530;2022-10-17T13:22:55;3.55;;;1.77;;
56599;SDS011;51832;48.152;11.530;2022-10-17T13:28:09;2.33;;;1.90;;
56599;SDS011;51832;48.152;11.530;2022-10-17T13:33:17;2.30;;;1.70;;
56599;SDS011;51832;48.152;11.530;2022-10-17T13:38:30;1.77;;;1.67;;
56599;SDS011;51832;48.152;11.530;2022-10-17T13:43:32;1.90;;;1.80;;
56599;SDS011;51832;48.152;11.530;2022-10-17T13:48:34;2.55;;;2.15;;
56599;SDS011;51832;48.152;11.530;2022-10-17T13:53:37;2.25;;;1.85;;
56599;SDS011;51832;48.152;11.530;2022-10-17T13:58:45;2.97;;;1.92;;
56599;SDS011;51832;48.152;11.530;2022-10-17T14:03:56;3.60;;;1.80;;
56599;SDS011;51832;48.152;11.530;2022-10-17T14:14:14;3.03;;;2.08;;
56599;SDS011;51832;48.152;11.530;2022-10-17T14:19:31;1.80;;;1.70;;
56599;SDS011;51832;48.152;11.530;2022-10-17T14:24:35;1.83;;;1.70;;
56599;SDS011;51832;48.152;11.530;2022-10-17T14:29:51;2.45;;;2.00;;
56599;SDS011;51832;48.152;11.530;2022-10-17T14:34:54;1.80;;;1.70;;
56599;SDS011;51832;48.152;11.530;2022-10-17T14:40:00;3.35;;;1.90;;
56599;SDS011;51832;48.152;11.530;2022-10-17T14:45:05;2.15;;;1.88;;
56599;SDS011;51832;48.152;11.530;2022-10-17T14:55:25;1.92;;;1.83;;
56599;SDS011;51832;48.152;11.530;2022-10-17T15:00:26;2.67;;;2.00;;
56599;SDS011;51832;48.152;11.530;2022-10-17T15:05:27;1.98;;;1.88;;
56599;SDS011;51832;48.152;11.530;2022-10-17T15:10:34;3.90;;;2.10;;
56599;SDS011;51832;48.152;11.530;2022-10-17T15:15:36;4.45;;;2.03;;
56599;SDS011;51832;48.152;11.530;2022-10-17T15:20:38;2.70;;;2.25;;
56599;SDS011;51832;48.152;11.530;2022-10-17T15:25:39;2.90;;;2.00;;
56599;SDS011;51832;48.152;11.530;2022-10-17T15:30:40;3.03;;;2.00;;
56599;SDS011;51832;48.152;11.530;2022-10-17T15:40:41;3.50;;;1.97;;
56599;SDS011;51832;48.152;11.530;2022-10-17T15:45:42;2.63;;;2.07;;
56599;SDS011;51832;48.152;11.530;2022-10-17T15:50:42;6.67;;;2.30;;
56599;SDS011;51832;48.152;11.530;2022-10-17T15:55:44;2.55;;;2.00;;
56599;SDS011;51832;48.152;11.530;2022-10-17T16:00:44;2.17;;;1.98;;
56599;SDS011;51832;48.152;11.530;2022-10-17T16:05:45;2.28;;;1.70;;
56599;SDS011;51832;48.152;11.530;2022-10-17T16:10:46;3.38;;;2.15;;
56599;SDS011;51832;48.152;11.530;2022-10-17T16:15:47;2.20;;;2.00;;
56599;SDS011;51832;48.152;11.530;2022-10-17T16:20:47;5.53;;;3.50;;
56599;SDS011;51832;48.152;11.530;2022-10-17T16:25:48;3.47;;;2.90;;
56599;SDS011;51832;48.152;11.530;2022-10-17T16:30:49;3.38;;;2.65;;
56599;SDS011;51832;48.152;11.530;2022-10-17T16:35:49;5.60;;;4.07;;
56599;SDS011;51832;48.152;11.530;2022-10-17T16:40:50;4.47;;;3.42;;
56599;SDS011;51832;48.152;11.530;2022-10-17T16:45:50;6.10;;;4.10;;
56599;SDS011;51832;48.152;11.530;2022-10-17T16:50:50;10.02;;;6.00;;
56599;SDS011;51832;48.152;11.530;2022-10-17T16:55:58;12.13;;;5.33;;
56599;SDS011;51832;48.152;11.530;2022-10-17T17:01:00;8.65;;;5.75;;
56599;SDS011;51832;48.152;11.530;2022-10-17T17:06:05;9.15;;;5.82;;
56599;SDS011;51832;48.152;11.530;2022-10-17T17:11:07;8.47;;;5.30;;
56599;SDS011;51832;48.152;11.530;2022-10-17T17:16:16;8.80;;;5.47;;
56599;SDS011;51832;48.152;11.530;2022-10-17T17:21:20;9.95;;;6.15;;
56599;SDS011;51832;48.152;11.530;2022-10-17T17:26:21;6.18;;;4.22;;
56599;SDS011;51832;48.152;11.530;2022-10-17T17:31:23;6.03;;;3.85;;
56599;SDS011;51832;48.152;11.530;2022-10-17T17:36:28;3.63;;;3.13;;
56599;SDS011;51832;48.152;11.530;2022-10-17T17:46:31;9.00;;;6.78;;
56599;SDS011;51832;48.152;11.530;2022-10-17T17:51:32;12.25;;;8.93;;
56599;SDS011;51832;48.152;11.530;2022-10-17T17:56:33;24.10;;;14.75;;
56599;SDS011;51832;48.152;11.530;2022-10-17T18:01:34;11.43;;;9.52;;
56599;SDS011;51832;48.152;11.530;2022-10-17T18:06:37;9.27;;;7.78;;
56599;SDS011;51832;48.152;11.530;2022-10-17T18:11:38;9.98;;;7.05;;
56599;SDS011;51832;48.152;11.530;2022-10-17T18:16:39;11.02;;;7.32;;
56599;SDS011;51832;48.152;11.530;2022-10-17T18:21:41;6.40;;;4.70;;
56599;SDS011;51832;48.152;11.530;2022-10-17T18:26:43;8.67;;;6.60;;
56599;SDS011;51832;48.152;11.530;2022-10-17T18:31:43;9.07;;;6.60;;
56599;SDS011;51832;48.152;11.530;2022-10-17T18:36:44;9.45;;;6.53;;
56599;SDS011;51832;48.152;11.530;2022-10-17T18:41:44;13.23;;;8.00;;
56599;SDS011;51832;48.152;11.530;2022-10-17T18:46:45;10.30;;;8.05;;
56599;SDS011;51832;48.152;11.530;2022-10-17T18:51:46;9.63;;;6.80;;
56599;SDS011;51832;48.152;11.530;2022-10-17T18:56:50;11.60;;;7.33;;
56599;SDS011;51832;48.152;11.530;2022-10-17T19:01:52;11.70;;;6.97;;
56599;SDS011;51832;48.152;11.530;2022-10-17T19:06:52;8.03;;;6.20;;
56599;SDS011;51832;48.152;11.530;2022-10-17T19:11:53;9.10;;;6.68;;
56599;SDS011;51832;48.152;11.530;2022-10-17T19:16:53;13.52;;;7.60;;
56599;SDS011;51832;48.152;11.530;2022-10-17T19:21:54;8.15;;;6.05;;
56599;SDS011;51832;48.152;11.530;2022-10-17T19:26:55;13.15;;;6.93;;
56599;SDS011;51832;48.152;11.530;2022-10-17T19:31:57;11.25;;;7.07;;
56599;SDS011;51832;48.152;11.530;2022-10-17T19:36:58;11.60;;;7.03;;
56599;SDS011;51832;48.152;11.530;2022-10-17T19:41:59;10.40;;;5.88;;
56599;SDS011;51832;48.152;11.530;2022-10-17T19:46:59;8.38;;;6.03;;
56599;SDS011;51832;48.152;11.530;2022-10-17T19:52:00;9.35;;;6.40;;
56599;SDS011;51832;48.152;11.530;2022-10-17T19:57:00;8.27;;;5.57;;
56599;SDS011;51832;48.152;11.530;2022-10-17T20:02:01;8.23;;;5.57;;
56599;SDS011;51832;48.152;11.530;2022-10-17T20:07:01;8.85;;;5.90;;
56599;SDS011;51832;48.152;11.530;2022-10-17T20:12:02;8.50;;;6.00;;
56599;SDS011;51832;48.152;11.530;2022-10-17T20:17:02;10.15;;;6.05;;
56599;SDS011;51832;48.152;11.530;2022-10-17T20:22:03;11.23;;;6.17;;
56599;SDS011;51832;48.152;11.530;2022-10-17T20:27:03;10.18;;;6.32;;
56599;SDS011;51832;48.152;11.530;2022-10-17T20:32:04;8.27;;;6.18;;
56599;SDS011;51832;48.152;11.530;2022-10-17T20:37:04;9.18;;;5.45;;
56599;SDS011;51832;48.152;11.530;2022-10-17T20:42:05;6.47;;;5.18;;
56599;SDS011;51832;48.152;11.530;2022-10-17T20:47:05;9.20;;;6.23;;
56599;SDS011;51832;48.152;11.530;2022-10-17T20:52:05;7.50;;;4.97;;
56599;SDS011;51832;48.152;11.530;2022-10-17T20:57:06;9.25;;;5.18;;
56599;SDS011;51832;48.152;11.530;2022-10-17T21:02:09;9.70;;;5.32;;
56599;SDS011;51832;48.152;11.530;2022-10-17T21:07:10;6.97;;;4.85;;
56599;SDS011;51832;48.152;11.530;2022-10-17T21:12:11;7.43;;;5.13;;
56599;SDS011;51832;48.152;11.530;2022-10-17T21:17:11;7.35;;;4.60;;
56599;SDS011;51832;48.152;11.530;2022-10-17T21:22:12;5.90;;;4.90;;
56599;SDS011;51832;48.152;11.530;2022-10-17T21:27:13;7.63;;;4.38;;
56599;SDS011;51832;48.152;11.530;2022-10-17T21:32:15;5.35;;;4.40;;
56599;SDS011;51832;48.152;11.530;2022-10-17T21:37:15;6.75;;;4.30;;
56599;SDS011;51832;48.152;11.530;2022-10-17T21:42:15;5.33;;;4.20;;
56599;SDS011;51832;48.152;11.530;2022-10-17T21:47:16;5.03;;;3.65;;
56599;SDS011;51832;48.152;11.530;2022-10-17T21:52:16;6.40;;;4.33;;
56599;SDS011;51832;48.152;11.530;2022-10-17T21:57:17;6.00;;;3.53;;
56599;SDS011;51832;48.152;11.530;2022-10-17T22:02:17;4.45;;;3.45;;
56599;SDS011;51832;48.152;11.530;2022-10-17T22:07:18;6.47;;;4.03;;
56599;SDS011;51832;48.152;11.530;2022-10-17T22:12:18;4.40;;;3.38;;
56599;SDS011;51832;48.152;11.530;2022-10-17T22:17:19;5.33;;;3.67;;
56599;SDS011;51832;48.152;11.530;2022-10-17T22:22:19;5.57;;;3.23;;
56599;SDS011;51832;48.152;11.530;2022-10-17T22:27:19;6.07;;;3.30;;
56599;SDS011;51832;48.152;11.530;2022-10-17T22:32:20;5.15;;;3.95;;
56599;SDS011;51832;48.152;11.530;2022-10-17T22:37:20;5.43;;;3.87;;
56599;SDS011;51832;48.152;11.530;2022-10-17T22:42:21;5.10;;;3.20;;
56599;SDS011;51832;48.152;11.530;2022-10-17T22:47:21;4.07;;;3.20;;
56599;SDS011;51832;48.152;11.530;2022-10-17T22:52:22;6.20;;;3.40;;
56599;SDS011;51832;48.152;11.530;2022-10-17T22:57:23;4.15;;;3.10;;
56599;SDS011;51832;48.152;11.530;2022-10-17T23:02:23;5.40;;;3.20;;
56599;SDS011;51832;48.152;11.530;2022-10-17T23:07:23;4.65;;;3.25;;
56599;SDS011;51832;48.152;11.530;2022-10-17T23:12:24;5.15;;;3.70;;
56599;SDS011;51832;48.152;11.530;2022-10-17T23:17:24;5.43;;;3.70;;
56599;SDS011;51832;48.152;11.530;2022-10-17T23:22:25;5.40;;;3.67;;
56599;SDS011;51832;48.152;11.530;2022-10-17T23:27:25;6.47;;;3.47;;
56599;SDS011;51832;48.152;11.530;2022-10-17T23:32:25;4.17;;;3.57;;
56599;SDS011;51832;48.152;11.530;2022-10-17T23:37:26;4.90;;;3.27;;
56599;SDS011;51832;48.152;11.530;2022-10-17T23:42:26;6.47;;;3.30;;
56599;SDS011;51832;48.152;11.530;2022-10-17T23:47:27;3.90;;;3.22;;
56599;SDS011;51832;48.152;11.530;2022-10-17T23:52:29;3.80;;;3.43;;
56599;SDS011;51832;48.152;11.530;2022-10-17T23:57:30;4.10;;;3.67;;
